x

East Scotia Slope (44137) Wave Buoy

10:00am - Wed 17th Sep 2014 All times are EDT. -4 hours from GMT.

  • Sig Wave height 4.6ft
  • Peak Period 14s
  • Wind
    11mph, 16mph gusts
  • Sea Temp 76°f
  • Air Temp 63°f
  • Sea Pressure 1015.7mb
  • East Scotia Slope
  • East Scotia Slope

More Historic Weather Station data

Upgrade to MSW Pro to gain access to the past 30 days of data for over 8000 Wavebouys and Weather Stations around the globe.

Join Pro

Comparision Forecast

View Surf forecast
   
Wed 09/17 10:00am 4.5ft 14s 11 16 mph 1015.7mb 76f 63f
9:00am 4.5ft 13s 11 18 mph 1015.4mb 76f 62f
8:00am 4.5ft 14s 13 18 mph 1015mb 75f 63f
7:00am 4.5ft 12s 11 16 mph 1014.7mb 75f 62f
6:00am 4.5ft 14s 13 18 mph 1014mb 75f 62f
5:00am 4.5ft 14s 13 20 mph 1013.5mb 75f 63f
4:00am 4.5ft 11s 13 20 mph 1013.3mb 75f 63f
3:00am 4.5ft 12s 13 20 mph 1013.4mb 76f 63f
2:00am 4.5ft 13s 13 18 mph 1013.7mb 75f 64f
1:00am 4.5ft 12s 11 18 mph 1013.8mb 76f 65f
12:00am 4ft 12s 9 13 mph 1014mb 76f 64f
Tue 09/16 11:00pm 3.5ft 13s 7 9 mph 1014.3mb 76f 64f
10:00pm 3.5ft 13s 9 13 mph 1014.5mb 76f 63f
9:00pm 3.5ft 13s 9 11 mph 1014.6mb 76f 63f
8:00pm 3.5ft 13s 9 13 mph 1014.8mb 76f 63f
7:00pm 3.5ft 12s 9 13 mph 1014.7mb 76f 63f
6:00pm 3ft 11s 9 13 mph 1014.7mb 76f 63f
5:00pm 3ft 12s 11 16 mph 1014.6mb 76f 64f
4:00pm 3ft 12s 9 11 mph 1014.6mb 76f 64f
3:00pm 3ft 12s 4 11 mph 1014.6mb 76f 65f
2:00pm 3.5ft 11s 7 13 mph 1014.9mb 76f 64f
1:00pm 3.5ft 12s 9 13 mph 1015.7mb 76f 64f
12:00pm 3ft 13s 9 11 mph 1016.2mb 76f 64f
11:00am 3.5ft 13s 11 16 mph 1016.4mb 76f 63f
10:00am 3.5ft 6s 13 18 mph 1016.8mb 76f 63f
9:00am 3.5ft 6s 11 16 mph 1017.2mb 76f 63f
8:00am 3.5ft 14s 9 11 mph 1017.5mb 75f 62f
7:00am 3.5ft 13s 9 16 mph 1017.4mb 75f 63f
6:00am 3ft 10s 13 18 mph 1017.3mb 75f 63f
5:00am 3.5ft 12s 9 16 mph 1017.2mb 75f 63f
4:00am 3.5ft 5s 13 18 mph 1017.6mb 75f 62f
3:00am 3.5ft 5s 9 13 mph 1017.7mb 75f 62f
2:00am 3.5ft  -  13 18 mph 1017.9mb 75f 61f
1:00am 4ft  -  9 13 mph 1017.9mb 75f 61f
12:00am 3.5ft 8s 11 18 mph 1018.3mb 75f 62f
Mon 09/15 11:00pm 3.5ft 6s 11 16 mph 1018.7mb 75f 61f
10:00pm 3.5ft 8s 11 16 mph 1019mb 75f 61f
9:00pm 3.5ft 7s 13 18 mph 1019.2mb 75f 61f
8:00pm 3.5ft 7s 13 20 mph 1019.1mb 75f 61f
7:00pm 3.5ft 7s 13 18 mph 1018.9mb 75f 62f
6:00pm 4ft 12s 13 18 mph 1018.8mb 75f 62f
5:00pm 4ft 7s 13 18 mph 1018.8mb 75f 62f
4:00pm 4ft 6s 13 18 mph 1018.7mb 75f 63f
3:00pm 4ft 7s 13 18 mph 1018.5mb 76f 63f
2:00pm 4.5ft 6s 13 18 mph 1018.2mb 76f 64f
1:00pm 4.5ft 6s 13 18 mph 1019mb 76f 64f
12:00pm 4.5ft 7s 11 16 mph 1019.2mb 76f 64f
11:00am 4.5ft 6s 13 16 mph 1019.5mb 76f 65f
10:00am 4ft 6s 11 13 mph 1019.7mb 75f 65f
9:00am 4.5ft 6s 11 16 mph 1019.8mb 76f 66f
8:00am 4.5ft 6s 9 13 mph 1020mb 75f 66f
7:00am 4.5ft 5s 9 16 mph 1019.8mb 75f 66f
6:00am 4ft 6s 11 16 mph 1019.5mb 75f 66f
5:00am 4.5ft 5s 7 9 mph 1019.1mb 76f 66f
4:00am 4.5ft 6s 11 13 mph 1019mb 75f 66f
3:00am 4.5ft 6s 9 13 mph 1018.7mb 75f 66f
2:00am 4.5ft 6s 7 11 mph 1018.8mb 75f 66f
1:00am 5ft 6s 9 11 mph 1018.9mb 75f 66f
12:00am 5ft 6s 9 16 mph 1018.9mb 75f 66f
Sun 09/14 11:00pm 5ft 6s 13 18 mph 1018.6mb 76f 66f
10:00pm 6ft 7s 16 20 mph 1018.7mb 76f 67f
9:00pm 6ft 7s 18 22 mph 1018.5mb 76f 67f
8:00pm 6ft 7s 20 25 mph 1018.4mb 76f 67f
7:00pm 6ft 6s 20 25 mph 1017.8mb 76f 68f
6:00pm 6ft 6s 22 27 mph 1017.4mb 76f 69f
5:00pm 7ft 6s 22 27 mph 1017.2mb 76f 69f
4:00pm 6.5ft 6s 22 27 mph 1016.7mb 75f 69f
3:00pm 6.5ft 5s 20 27 mph 1016.1mb 76f 70f
2:00pm 6ft 6s 22 29 mph 1015.8mb 76f 70f
1:00pm 6ft 7s 20 25 mph 1015.6mb 76f 70f
12:00pm 6ft 8s 22 27 mph 1015.4mb 76f 71f
11:00am 6ft 7s 22 27 mph 1015mb 76f 73f
10:00am 6.5ft 8s 22 25 mph 1014.7mb 76f 76f
9:00am 6.5ft 7s 20 25 mph 1015.5mb 76f 76f
8:00am 6ft 7s 20 22 mph 1015.5mb 76f 76f
7:00am 6ft 7s 22 25 mph 1015.7mb 76f 76f
6:00am 6.5ft 7s 20 25 mph 1016.3mb 76f 76f
5:00am 6.5ft 7s 22 27 mph 1016.4mb 76f 76f
4:00am 8ft 7s 20 27 mph 1016.8mb 75f 76f
3:00am 8.5ft 7s 16 20 mph 1017.4mb 74f 74f
2:00am 8ft 6s 29 36 mph 1018.1mb 74f 70f
1:00am 7ft 5s 31 36 mph 1019.1mb 74f 69f
12:00am 6.5ft 6s 27 34 mph 1020.7mb 74f 69f
Sat 09/13 11:00pm 5.5ft 5s 25 29 mph 1022mb 74f 69f
10:00pm 5.5ft 5s 22 27 mph 1022.9mb 74f 70f
9:00pm 5ft 5s 22 27 mph 1023.5mb 74f 69f
8:00pm 5ft 5s 25 29 mph 1023.8mb 74f 69f
7:00pm 4.5ft 6s 20 25 mph 1024.4mb 74f 69f
6:00pm 4.5ft 5s 20 25 mph 1024.2mb 74f 68f
5:00pm 4.5ft 6s 20 25 mph 1024.7mb 74f 68f
4:00pm 4.5ft 5s 22 27 mph 1024.3mb 74f 68f